WZZ6QX EPGD-ESGG
Flight info
| Callsign | WZZ6QX |
|---|---|
| Flight time | N/A |
| Altitude | 34000 |
| Route | VAPOS N133 PENOR DCT NILEN L617 ARQUS |
| Aircraft | A320/M-SDE1E2E3FGIJ1J4RWXY/LB1 |
Departure
| Time | 2026-04-30 12:37 |
|---|---|
| Airport | Gdańsk Lech Wałęsa Airport (EPGD) |
Arrival
| Time | N/A |
|---|---|
| Airport | Göteborg Landvetter Airport (ESGG) |
| Time | Latitude | Longitude | Altitude | Speed | Heading |
|---|---|---|---|---|---|
| 2026-04-30 12:14 | 54.38146 | 18.46503 | 460 ft | 0 kts | 23° |
| 2026-04-30 12:28 | 54.38138 | 18.46497 | 459 ft | 4 kts | 26° |
| 2026-04-30 12:29 | 54.38116 | 18.46472 | 458 ft | 4 kts | 58° |
| 2026-04-30 12:29 | 54.38111 | 18.46436 | 459 ft | 2 kts | 112° |
| 2026-04-30 12:29 | 54.38111 | 18.46434 | 459 ft | 0 kts | 113° |
| 2026-04-30 12:31 | 54.38109 | 18.46443 | 459 ft | 2 kts | 113° |
| 2026-04-30 12:31 | 54.38093 | 18.46506 | 460 ft | 11 kts | 113° |
| 2026-04-30 12:32 | 54.38060 | 18.46611 | 460 ft | 9 kts | 152° |
| 2026-04-30 12:32 | 54.37995 | 18.46589 | 458 ft | 11 kts | 204° |
| 2026-04-30 12:32 | 54.37931 | 18.46636 | 459 ft | 13 kts | 111° |
| 2026-04-30 12:32 | 54.37896 | 18.46789 | 459 ft | 15 kts | 112° |
| 2026-04-30 12:33 | 54.37852 | 18.46968 | 459 ft | 17 kts | 114° |
| 2026-04-30 12:33 | 54.37800 | 18.47170 | 458 ft | 20 kts | 113° |
| 2026-04-30 12:33 | 54.37744 | 18.47398 | 458 ft | 21 kts | 113° |
| 2026-04-30 12:33 | 54.37685 | 18.47635 | 463 ft | 22 kts | 113° |
| 2026-04-30 12:34 | 54.37626 | 18.47874 | 468 ft | 22 kts | 113° |
| 2026-04-30 12:34 | 54.37567 | 18.48114 | 474 ft | 22 kts | 113° |
| 2026-04-30 12:34 | 54.37508 | 18.48348 | 478 ft | 21 kts | 113° |
| 2026-04-30 12:34 | 54.37454 | 18.48567 | 484 ft | 19 kts | 112° |
| 2026-04-30 12:35 | 54.37403 | 18.48775 | 485 ft | 19 kts | 113° |
| 2026-04-30 12:35 | 54.37350 | 18.48987 | 492 ft | 18 kts | 114° |
| 2026-04-30 12:35 | 54.37308 | 18.49144 | 492 ft | 11 kts | 125° |
| 2026-04-30 12:35 | 54.37235 | 18.49132 | 493 ft | 13 kts | 204° |
| 2026-04-30 12:36 | 54.37166 | 18.49086 | 491 ft | 4 kts | 201° |
| 2026-04-30 12:36 | 54.37160 | 18.49043 | 494 ft | 5 kts | 272° |
| 2026-04-30 12:36 | 54.37178 | 18.48963 | 487 ft | 9 kts | 292° |
| 2026-04-30 12:36 | 54.37259 | 18.48638 | 486 ft | 64 kts | 293° |
| 2026-04-30 12:37 | 54.37521 | 18.47582 | 464 ft | 125 kts | 293° |
| 2026-04-30 12:37 | 54.37920 | 18.45973 | 575 ft | 160 kts | 293° |
| 2026-04-30 12:37 | 54.38338 | 18.44282 | 1362 ft | 152 kts | 293° |
| 2026-04-30 12:37 | 54.38758 | 18.42583 | 2097 ft | 161 kts | 293° |
| 2026-04-30 12:38 | 54.39224 | 18.40691 | 2533 ft | 184 kts | 290° |
| 2026-04-30 12:38 | 54.39752 | 18.38545 | 2978 ft | 208 kts | 293° |
| 2026-04-30 12:38 | 54.40346 | 18.36121 | 3475 ft | 233 kts | 293° |
| 2026-04-30 12:38 | 54.41003 | 18.33453 | 4164 ft | 249 kts | 294° |
| 2026-04-30 12:39 | 54.41688 | 18.30679 | 5170 ft | 254 kts | 295° |
| 2026-04-30 12:39 | 54.42427 | 18.27914 | 6196 ft | 256 kts | 305° |
| 2026-04-30 12:39 | 54.43646 | 18.25723 | 7129 ft | 255 kts | 328° |
| 2026-04-30 12:39 | 54.45162 | 18.24119 | 8063 ft | 257 kts | 331° |
| 2026-04-30 12:40 | 54.46704 | 18.22504 | 8967 ft | 261 kts | 332° |
| 2026-04-30 12:40 | 54.48265 | 18.20862 | 9843 ft | 266 kts | 332° |
| 2026-04-30 12:40 | 54.49859 | 18.19182 | 10644 ft | 273 kts | 332° |
| 2026-04-30 12:40 | 54.51544 | 18.17408 | 10942 ft | 296 kts | 332° |
| 2026-04-30 12:41 | 54.53350 | 18.15497 | 11396 ft | 310 kts | 332° |
| 2026-04-30 12:41 | 54.55178 | 18.13551 | 12110 ft | 315 kts | 332° |
| 2026-04-30 12:41 | 54.57053 | 18.11547 | 12860 ft | 319 kts | 332° |
| 2026-04-30 12:41 | 54.58944 | 18.09522 | 13613 ft | 322 kts | 332° |
| 2026-04-30 12:42 | 54.60787 | 18.07247 | 14340 ft | 328 kts | 327° |
| 2026-04-30 12:42 | 54.62617 | 18.04861 | 15009 ft | 331 kts | 328° |
| 2026-04-30 12:42 | 54.64458 | 18.02458 | 15679 ft | 334 kts | 328° |
| 2026-04-30 12:42 | 54.66317 | 18.00029 | 16336 ft | 336 kts | 328° |
| 2026-04-30 12:43 | 54.68189 | 17.97578 | 17001 ft | 339 kts | 328° |
| 2026-04-30 12:43 | 54.70081 | 17.95103 | 17664 ft | 342 kts | 329° |
| 2026-04-30 12:43 | 54.71988 | 17.92608 | 18323 ft | 345 kts | 329° |
| 2026-04-30 12:43 | 54.73907 | 17.90092 | 18944 ft | 348 kts | 329° |
| 2026-04-30 12:44 | 54.75843 | 17.87544 | 19527 ft | 351 kts | 329° |
| 2026-04-30 12:44 | 54.77792 | 17.84976 | 20120 ft | 353 kts | 329° |
| 2026-04-30 12:44 | 54.79809 | 17.82557 | 20708 ft | 351 kts | 336° |
| 2026-04-30 12:44 | 54.81993 | 17.80736 | 21271 ft | 349 kts | 341° |
| 2026-04-30 12:45 | 54.84221 | 17.78997 | 21822 ft | 352 kts | 341° |
| 2026-04-30 12:45 | 54.86454 | 17.77248 | 22364 ft | 354 kts | 341° |
| 2026-04-30 12:45 | 54.88706 | 17.75477 | 22900 ft | 356 kts | 341° |
| 2026-04-30 12:45 | 54.90972 | 17.73688 | 23439 ft | 359 kts | 341° |
| 2026-04-30 12:46 | 54.93248 | 17.71885 | 23967 ft | 361 kts | 342° |
| 2026-04-30 12:46 | 54.95544 | 17.70065 | 24415 ft | 363 kts | 342° |
| 2026-04-30 12:46 | 54.97853 | 17.68237 | 24864 ft | 365 kts | 342° |
| 2026-04-30 12:46 | 55.00180 | 17.66428 | 25304 ft | 367 kts | 343° |
| 2026-04-30 12:47 | 55.02520 | 17.64644 | 25749 ft | 369 kts | 343° |
| 2026-04-30 12:47 | 55.04881 | 17.62854 | 26189 ft | 370 kts | 343° |
| 2026-04-30 12:47 | 55.07248 | 17.61062 | 26629 ft | 372 kts | 343° |
| 2026-04-30 12:47 | 55.09632 | 17.59253 | 27051 ft | 374 kts | 343° |
| 2026-04-30 12:48 | 55.12028 | 17.57428 | 27467 ft | 376 kts | 343° |
| 2026-04-30 12:48 | 55.14435 | 17.55583 | 27876 ft | 379 kts | 343° |
| 2026-04-30 12:48 | 55.16849 | 17.53725 | 28286 ft | 381 kts | 343° |
| 2026-04-30 12:48 | 55.19281 | 17.51849 | 28701 ft | 383 kts | 343° |
| 2026-04-30 12:49 | 55.21725 | 17.49962 | 29103 ft | 385 kts | 343° |
| 2026-04-30 12:49 | 55.24181 | 17.48041 | 29510 ft | 388 kts | 342° |
| 2026-04-30 12:49 | 55.26648 | 17.46083 | 29912 ft | 390 kts | 342° |
| 2026-04-30 12:49 | 55.29121 | 17.44104 | 30310 ft | 392 kts | 342° |
| 2026-04-30 12:50 | 55.31616 | 17.42102 | 30668 ft | 395 kts | 342° |
| 2026-04-30 12:50 | 55.34117 | 17.40098 | 30995 ft | 397 kts | 342° |
| 2026-04-30 12:50 | 55.36639 | 17.38081 | 31327 ft | 399 kts | 342° |
| 2026-04-30 12:50 | 55.39176 | 17.36052 | 31656 ft | 401 kts | 342° |
| 2026-04-30 12:51 | 55.41721 | 17.34017 | 32052 ft | 402 kts | 342° |
| 2026-04-30 12:51 | 55.44261 | 17.31977 | 32544 ft | 400 kts | 342° |
| 2026-04-30 12:51 | 55.46789 | 17.29939 | 33012 ft | 399 kts | 342° |
| 2026-04-30 12:51 | 55.49315 | 17.27902 | 33482 ft | 398 kts | 342° |
| 2026-04-30 12:52 | 55.51829 | 17.25874 | 33958 ft | 398 kts | 342° |
| 2026-04-30 12:52 | 55.54346 | 17.23844 | 34324 ft | 398 kts | 342° |
| 2026-04-30 12:52 | 55.59325 | 17.19815 | 34401 ft | 389 kts | 342° |
| 2026-04-30 12:53 | 55.63156 | 17.15501 | 34397 ft | 403 kts | 326° |
| 2026-04-30 12:53 | 55.65068 | 17.11786 | 34396 ft | 415 kts | 314° |
| 2026-04-30 12:53 | 55.66581 | 17.07357 | 34397 ft | 424 kts | 307° |
| 2026-04-30 12:54 | 55.69381 | 16.98170 | 34403 ft | 424 kts | 307° |
| 2026-04-30 12:54 | 55.72186 | 16.88968 | 34395 ft | 424 kts | 307° |
| 2026-04-30 12:55 | 55.74985 | 16.79775 | 34390 ft | 424 kts | 307° |
| 2026-04-30 12:55 | 55.77775 | 16.70565 | 34389 ft | 424 kts | 306° |
| 2026-04-30 12:56 | 55.80560 | 16.61319 | 34390 ft | 424 kts | 306° |
| 2026-04-30 12:56 | 55.83337 | 16.52078 | 34391 ft | 424 kts | 306° |
| 2026-04-30 12:57 | 55.86101 | 16.42817 | 34385 ft | 424 kts | 306° |
| 2026-04-30 12:57 | 55.88865 | 16.33544 | 34384 ft | 423 kts | 306° |
| 2026-04-30 12:58 | 55.91616 | 16.24272 | 34386 ft | 423 kts | 306° |
| 2026-04-30 12:58 | 55.94364 | 16.14984 | 34387 ft | 423 kts | 305° |
| 2026-04-30 12:59 | 55.97089 | 16.05745 | 34385 ft | 423 kts | 305° |
| 2026-04-30 12:59 | 55.99818 | 15.96447 | 34383 ft | 422 kts | 305° |
| 2026-04-30 13:00 | 56.02517 | 15.87223 | 34389 ft | 422 kts | 305° |
| 2026-04-30 13:00 | 56.05220 | 15.77907 | 34381 ft | 422 kts | 304° |
| 2026-04-30 13:01 | 56.07918 | 15.68593 | 34371 ft | 422 kts | 304° |
| 2026-04-30 13:01 | 56.10610 | 15.59256 | 34360 ft | 422 kts | 304° |
| 2026-04-30 13:02 | 56.13296 | 15.49921 | 34341 ft | 422 kts | 304° |
| 2026-04-30 13:02 | 56.15980 | 15.40564 | 34340 ft | 422 kts | 304° |
| 2026-04-30 13:03 | 56.18652 | 15.31194 | 34342 ft | 422 kts | 303° |
| 2026-04-30 13:03 | 56.21316 | 15.21812 | 34337 ft | 422 kts | 303° |
| 2026-04-30 13:04 | 56.23973 | 15.12402 | 34337 ft | 422 kts | 303° |
| 2026-04-30 13:04 | 56.26627 | 15.02995 | 34341 ft | 422 kts | 303° |
| 2026-04-30 13:05 | 56.29274 | 14.93557 | 34342 ft | 422 kts | 302° |
| 2026-04-30 13:06 | 56.33230 | 14.79380 | 34350 ft | 422 kts | 302° |
| 2026-04-30 13:06 | 56.35860 | 14.69913 | 34351 ft | 422 kts | 302° |
| 2026-04-30 13:07 | 56.38479 | 14.60423 | 34359 ft | 423 kts | 302° |
| 2026-04-30 13:07 | 56.41098 | 14.50921 | 34365 ft | 422 kts | 302° |
| 2026-04-30 13:08 | 56.43706 | 14.41418 | 34359 ft | 422 kts | 301° |
| 2026-04-30 13:08 | 56.46306 | 14.31890 | 34360 ft | 422 kts | 301° |
| 2026-04-30 13:09 | 56.48900 | 14.22358 | 34372 ft | 422 kts | 301° |
| 2026-04-30 13:09 | 56.51488 | 14.12823 | 34369 ft | 422 kts | 301° |
| 2026-04-30 13:10 | 56.54070 | 14.03262 | 34363 ft | 424 kts | 300° |
| 2026-04-30 13:10 | 56.56661 | 13.93611 | 34293 ft | 427 kts | 300° |
| 2026-04-30 13:10 | 56.57967 | 13.88736 | 33327 ft | 433 kts | 300° |
| 2026-04-30 13:11 | 56.59282 | 13.83821 | 32476 ft | 431 kts | 300° |
| 2026-04-30 13:11 | 56.60578 | 13.78951 | 31479 ft | 426 kts | 300° |
| 2026-04-30 13:11 | 56.61851 | 13.74142 | 30667 ft | 417 kts | 300° |
| 2026-04-30 13:11 | 56.63078 | 13.69492 | 30189 ft | 400 kts | 300° |
| 2026-04-30 13:12 | 56.64254 | 13.65017 | 29740 ft | 384 kts | 300° |
| 2026-04-30 13:12 | 56.65383 | 13.60716 | 29324 ft | 370 kts | 300° |
| 2026-04-30 13:12 | 56.66470 | 13.56580 | 28931 ft | 357 kts | 300° |
| 2026-04-30 13:13 | 56.68592 | 13.48558 | 28162 ft | 352 kts | 300° |
| 2026-04-30 13:13 | 56.69653 | 13.44555 | 27791 ft | 350 kts | 300° |
| 2026-04-30 13:13 | 56.71800 | 13.36625 | 27030 ft | 345 kts | 306° |
| 2026-04-30 13:14 | 56.73203 | 13.33146 | 26657 ft | 337 kts | 316° |
| 2026-04-30 13:14 | 56.74905 | 13.30271 | 26282 ft | 331 kts | 327° |
| 2026-04-30 13:14 | 56.78784 | 13.25957 | 25530 ft | 325 kts | 333° |
| 2026-04-30 13:15 | 56.80735 | 13.23880 | 25154 ft | 324 kts | 333° |
| 2026-04-30 13:15 | 56.84606 | 13.19740 | 24384 ft | 322 kts | 333° |
| 2026-04-30 13:15 | 56.86538 | 13.17671 | 23990 ft | 322 kts | 333° |
| 2026-04-30 13:16 | 56.88443 | 13.15632 | 23532 ft | 320 kts | 333° |
| 2026-04-30 13:16 | 56.90356 | 13.13582 | 23122 ft | 318 kts | 333° |
| 2026-04-30 13:16 | 56.92261 | 13.11537 | 22702 ft | 316 kts | 333° |
| 2026-04-30 13:17 | 56.96042 | 13.07474 | 21884 ft | 313 kts | 333° |
| 2026-04-30 13:17 | 56.97917 | 13.05461 | 21480 ft | 312 kts | 333° |
| 2026-04-30 13:17 | 57.01656 | 13.01438 | 20646 ft | 311 kts | 333° |
| 2026-04-30 13:18 | 57.03517 | 12.99427 | 20211 ft | 311 kts | 333° |
| 2026-04-30 13:18 | 57.07245 | 12.95398 | 19392 ft | 311 kts | 333° |
| 2026-04-30 13:18 | 57.09123 | 12.93454 | 18980 ft | 309 kts | 338° |
| 2026-04-30 13:19 | 57.11139 | 12.92146 | 18545 ft | 306 kts | 349° |
| 2026-04-30 13:19 | 57.13198 | 12.91227 | 18110 ft | 304 kts | 349° |
| 2026-04-30 13:19 | 57.15251 | 12.90303 | 17706 ft | 303 kts | 349° |
| 2026-04-30 13:19 | 57.17298 | 12.89372 | 17290 ft | 302 kts | 349° |
| 2026-04-30 13:20 | 57.19327 | 12.88443 | 16891 ft | 301 kts | 349° |
| 2026-04-30 13:20 | 57.21358 | 12.87509 | 16483 ft | 300 kts | 349° |
| 2026-04-30 13:20 | 57.23386 | 12.86577 | 16079 ft | 300 kts | 349° |
| 2026-04-30 13:20 | 57.25411 | 12.85647 | 15684 ft | 300 kts | 349° |
| 2026-04-30 13:21 | 57.27432 | 12.84719 | 15276 ft | 299 kts | 349° |
| 2026-04-30 13:21 | 57.29452 | 12.83788 | 14874 ft | 299 kts | 349° |
| 2026-04-30 13:21 | 57.31469 | 12.82857 | 14475 ft | 299 kts | 349° |
| 2026-04-30 13:22 | 57.35504 | 12.80999 | 13652 ft | 298 kts | 349° |
| 2026-04-30 13:22 | 57.37513 | 12.80075 | 13260 ft | 297 kts | 349° |
| 2026-04-30 13:22 | 57.41506 | 12.78230 | 12483 ft | 294 kts | 348° |
| 2026-04-30 13:23 | 57.43491 | 12.77313 | 12094 ft | 294 kts | 348° |
| 2026-04-30 13:23 | 57.44800 | 12.76708 | 11840 ft | 293 kts | 348° |
| 2026-04-30 13:24 | 57.47568 | 12.75981 | 10717 ft | 307 kts | 352° |
| 2026-04-30 13:25 | 57.51602 | 12.74078 | 10315 ft | 293 kts | 345° |
| 2026-04-30 13:25 | 57.55359 | 12.71979 | 9993 ft | 275 kts | 345° |
| 2026-04-30 13:26 | 57.60842 | 12.68997 | 8935 ft | 274 kts | 336° |
| 2026-04-30 13:26 | 57.63995 | 12.65018 | 8313 ft | 273 kts | 326° |
| 2026-04-30 13:27 | 57.67069 | 12.60899 | 7732 ft | 271 kts | 326° |
| 2026-04-30 13:28 | 57.71627 | 12.54788 | 6838 ft | 267 kts | 326° |
| 2026-04-30 13:28 | 57.74679 | 12.50692 | 5776 ft | 280 kts | 325° |
| 2026-04-30 13:28 | 57.76303 | 12.48513 | 5013 ft | 294 kts | 325° |
| 2026-04-30 13:29 | 57.79363 | 12.43291 | 3792 ft | 305 kts | 296° |
| 2026-04-30 13:29 | 57.79015 | 12.35929 | 2840 ft | 287 kts | 231° |